createdAt,value
2022-10-31T00:01:01.456Z,13.27
2022-10-31T00:03:28.442Z,13.20
2022-10-31T00:05:55.464Z,13.16
2022-10-31T00:08:22.397Z,13.10
2022-10-31T00:10:49.384Z,13.06
2022-10-31T00:13:16.635Z,13.00
2022-10-31T00:15:43.698Z,12.93
2022-10-31T00:18:11.610Z,12.87
2022-10-31T00:20:39.473Z,12.82
2022-10-31T00:23:07.438Z,12.74
2022-10-31T00:25:38.946Z,12.71
2022-10-31T00:28:07.663Z,12.64
2022-10-31T00:30:34.615Z,12.61
2022-10-31T00:33:03.947Z,12.56
2022-10-31T00:35:32.941Z,12.52
2022-10-31T00:38:00.236Z,12.45
2022-10-31T00:40:27.309Z,12.40
2022-10-31T00:42:55.430Z,12.34
2022-10-31T00:45:22.482Z,12.30
2022-10-31T00:47:49.480Z,12.23
2022-10-31T00:50:16.523Z,12.17
2022-10-31T00:52:43.460Z,12.11
2022-10-31T00:55:10.398Z,12.05
2022-10-31T00:57:37.802Z,12.00
2022-10-31T01:00:07.115Z,11.94
2022-10-31T01:02:34.453Z,11.90
2022-10-31T01:05:01.572Z,11.85
2022-10-31T01:07:28.726Z,11.80
2022-10-31T01:09:59.570Z,11.75
2022-10-31T01:12:29.362Z,11.72
2022-10-31T01:14:57.785Z,11.69
2022-10-31T01:17:24.806Z,11.65
2022-10-31T01:19:51.754Z,11.65
2022-10-31T01:22:18.885Z,11.63
2022-10-31T01:24:45.850Z,11.60
2022-10-31T01:27:12.813Z,11.56
2022-10-31T01:29:42.330Z,11.53
2022-10-31T01:32:09.336Z,11.50
2022-10-31T01:34:36.326Z,11.48
2022-10-31T01:37:04.301Z,11.49
2022-10-31T01:39:32.681Z,11.48
2022-10-31T01:42:01.833Z,11.48
2022-10-31T01:44:28.754Z,11.45
2022-10-31T01:47:42.657Z,11.44
2022-10-31T01:50:23.549Z,11.40
2022-10-31T01:52:51.956Z,11.39
2022-10-31T01:55:30.336Z,11.36
2022-10-31T01:58:05.315Z,11.32
2022-10-31T02:00:33.396Z,11.31
2022-10-31T02:03:01.385Z,11.32
2022-10-31T02:05:30.730Z,11.33
2022-10-31T02:08:34.212Z,11.33
2022-10-31T02:11:02.446Z,11.32
2022-10-31T02:13:31.019Z,11.28
2022-10-31T02:16:00.116Z,11.26
2022-10-31T02:18:31.279Z,11.25
2022-10-31T02:21:05.890Z,11.24
2022-10-31T02:23:49.496Z,11.24
2022-10-31T02:26:42.450Z,11.25
2022-10-31T02:29:37.094Z,11.25
2022-10-31T02:32:28.117Z,11.23
2022-10-31T02:35:21.580Z,11.21
2022-10-31T02:38:07.937Z,11.18
2022-10-31T02:41:00.720Z,11.14
2022-10-31T02:44:18.460Z,11.10
2022-10-31T02:46:53.245Z,11.07
2022-10-31T02:49:29.253Z,11.04
2022-10-31T02:51:56.393Z,11.00
2022-10-31T02:54:26.422Z,10.99
2022-10-31T02:57:07.238Z,10.97
2022-10-31T02:59:37.661Z,10.97
2022-10-31T03:02:25.482Z,10.97
2022-10-31T03:05:08.733Z,10.96
2022-10-31T03:07:58.170Z,10.94
2022-10-31T03:10:50.131Z,10.93
2022-10-31T03:13:31.052Z,10.91
2022-10-31T03:16:17.203Z,10.87
2022-10-31T03:19:01.517Z,10.84
2022-10-31T03:21:43.410Z,10.81
2022-10-31T03:24:12.707Z,10.81
2022-10-31T03:26:48.616Z,10.79
2022-10-31T03:29:21.688Z,10.78
2022-10-31T03:32:24.341Z,10.78
2022-10-31T03:34:57.070Z,10.77
2022-10-31T03:37:28.305Z,10.76
2022-10-31T03:39:58.073Z,10.74
2022-10-31T03:42:27.247Z,10.71
2022-10-31T03:45:00.553Z,10.68
2022-10-31T03:47:30.073Z,10.66
2022-10-31T03:49:57.978Z,10.63
2022-10-31T03:52:29.629Z,10.62
2022-10-31T03:55:11.471Z,10.60
2022-10-31T03:57:46.471Z,10.58
2022-10-31T04:00:17.153Z,10.57
2022-10-31T04:02:56.698Z,10.56
2022-10-31T04:05:24.801Z,10.53
2022-10-31T04:07:56.184Z,10.49
2022-10-31T04:10:30.180Z,10.45
2022-10-31T04:13:09.136Z,10.39
2022-10-31T04:15:46.619Z,10.33
2022-10-31T04:18:13.666Z,10.29
2022-10-31T04:20:42.864Z,10.21
2022-10-31T04:23:25.165Z,10.15
2022-10-31T04:25:52.290Z,10.10
2022-10-31T04:30:52.188Z,10.01
2022-10-31T04:33:19.119Z,9.95
2022-10-31T04:35:48.421Z,9.92
2022-10-31T04:38:15.845Z,9.89
2022-10-31T04:40:43.950Z,9.84
2022-10-31T04:43:30.918Z,9.84
2022-10-31T04:46:00.327Z,9.87
2022-10-31T04:48:27.551Z,9.90
2022-10-31T04:51:02.370Z,9.93
2022-10-31T04:53:30.110Z,9.96
2022-10-31T04:56:16.751Z,10.01
2022-10-31T04:58:47.665Z,10.04
2022-10-31T05:01:14.786Z,10.06
2022-10-31T05:03:41.836Z,10.08
2022-10-31T05:06:08.905Z,10.10
2022-10-31T05:08:38.469Z,10.15
2022-10-31T05:11:07.841Z,10.18
2022-10-31T05:13:35.211Z,10.20
2022-10-31T05:16:22.170Z,10.21
2022-10-31T05:19:09.014Z,10.20
2022-10-31T05:21:56.273Z,10.18
2022-10-31T05:24:24.186Z,10.14
2022-10-31T05:26:51.216Z,10.12
2022-10-31T05:29:18.316Z,10.09
2022-10-31T05:31:45.566Z,10.06
2022-10-31T05:34:30.023Z,10.01
2022-10-31T05:37:19.193Z,9.95
2022-10-31T05:39:46.405Z,9.92
2022-10-31T05:42:16.157Z,9.89
2022-10-31T05:44:43.262Z,9.84
2022-10-31T05:47:22.296Z,9.82
2022-10-31T05:50:09.359Z,9.78
2022-10-31T05:53:01.460Z,9.76
2022-10-31T05:55:35.994Z,9.77
2022-10-31T05:58:08.203Z,9.75
2022-10-31T06:00:37.796Z,9.72
2022-10-31T06:03:12.337Z,9.70
2022-10-31T06:05:50.734Z,9.68
2022-10-31T06:08:21.500Z,9.66
2022-10-31T06:10:54.714Z,9.63
2022-10-31T06:13:31.739Z,9.58
2022-10-31T06:16:04.218Z,9.56
2022-10-31T06:18:36.505Z,9.57
2022-10-31T06:21:04.036Z,9.69
2022-10-31T06:23:32.196Z,9.74
2022-10-31T06:26:20.137Z,9.76
2022-10-31T06:28:48.982Z,9.73
2022-10-31T06:31:38.655Z,9.68
2022-10-31T06:34:14.699Z,9.63
2022-10-31T06:36:42.357Z,9.58
2022-10-31T06:39:09.473Z,9.54
2022-10-31T06:41:37.809Z,9.52
2022-10-31T06:44:08.160Z,9.52
2022-10-31T06:46:54.944Z,9.52
2022-10-31T06:49:41.773Z,9.55
2022-10-31T06:52:13.576Z,9.56
2022-10-31T06:54:40.638Z,9.62
2022-10-31T06:57:07.887Z,9.69
2022-10-31T06:59:34.958Z,9.76
2022-10-31T07:02:15.601Z,9.85
2022-10-31T07:04:44.034Z,9.93
2022-10-31T07:07:14.263Z,10.00
2022-10-31T07:09:41.260Z,10.07
2022-10-31T07:12:11.200Z,10.16
2022-10-31T07:14:43.441Z,10.24
2022-10-31T07:17:11.254Z,10.32
2022-10-31T07:19:41.778Z,10.39
2022-10-31T07:22:10.188Z,10.47
2022-10-31T07:24:38.735Z,10.54
2022-10-31T07:27:43.714Z,10.66
2022-10-31T07:30:14.347Z,10.79
2022-10-31T07:32:43.276Z,10.94
2022-10-31T07:35:12.317Z,11.05
2022-10-31T07:37:52.482Z,11.15
2022-10-31T07:40:20.252Z,11.25
2022-10-31T07:42:49.598Z,11.33
2022-10-31T07:45:44.292Z,11.37
2022-10-31T07:48:30.840Z,11.43
2022-10-31T07:51:16.418Z,11.47
2022-10-31T07:54:12.169Z,11.58
2022-10-31T07:56:39.053Z,11.66
2022-10-31T07:59:06.837Z,11.73
2022-10-31T08:01:33.870Z,11.77
2022-10-31T08:04:33.000Z,11.85
2022-10-31T08:07:19.040Z,11.91
2022-10-31T08:09:53.356Z,12.00
2022-10-31T08:12:24.370Z,12.10
2022-10-31T08:14:52.700Z,12.21
2022-10-31T08:17:22.597Z,12.31
2022-10-31T08:19:56.964Z,12.41
2022-10-31T08:22:32.586Z,12.53
2022-10-31T08:25:00.941Z,12.62
2022-10-31T08:27:28.485Z,12.72
2022-10-31T08:29:59.478Z,12.78
2022-10-31T08:32:26.802Z,12.86
2022-10-31T08:35:12.647Z,12.96
2022-10-31T08:37:54.131Z,13.06
2022-10-31T08:40:21.077Z,13.17
2022-10-31T08:42:47.987Z,13.27
2022-10-31T08:45:15.000Z,13.38
2022-10-31T08:47:41.999Z,13.50
2022-10-31T08:50:09.205Z,13.57
2022-10-31T08:53:02.917Z,13.59
2022-10-31T08:55:27.986Z,13.67
2022-10-31T08:58:11.044Z,13.76
2022-10-31T09:00:45.691Z,13.86
2022-10-31T09:03:27.327Z,13.94
2022-10-31T09:06:01.681Z,13.98
2022-10-31T09:08:32.108Z,14.04
2022-10-31T09:10:59.299Z,14.10
2022-10-31T09:14:01.417Z,14.10
2022-10-31T09:16:31.017Z,14.08
2022-10-31T09:18:58.042Z,14.11
2022-10-31T09:21:25.146Z,14.17
2022-10-31T09:23:54.816Z,14.20
2022-10-31T09:26:22.725Z,14.23
2022-10-31T09:29:14.617Z,14.23
2022-10-31T09:31:45.073Z,14.24
2022-10-31T09:34:31.809Z,14.31
2022-10-31T09:37:06.993Z,14.37
2022-10-31T09:39:35.906Z,14.44
2022-10-31T09:42:49.881Z,14.55
2022-10-31T09:46:11.461Z,14.72
2022-10-31T09:48:52.913Z,14.96
2022-10-31T09:51:30.606Z,15.11
2022-10-31T09:54:11.972Z,15.19
2022-10-31T09:56:39.674Z,15.13
2022-10-31T09:59:17.165Z,15.08
2022-10-31T10:01:52.237Z,15.07
2022-10-31T10:04:44.504Z,15.12
2022-10-31T10:07:28.945Z,15.22
2022-10-31T10:10:50.921Z,15.33
2022-10-31T10:13:47.924Z,15.38
2022-10-31T10:16:34.395Z,15.49
2022-10-31T10:19:16.633Z,15.55
2022-10-31T10:21:52.737Z,15.65
2022-10-31T10:24:34.771Z,15.65
2022-10-31T10:27:16.841Z,15.75
2022-10-31T10:30:12.122Z,15.82
2022-10-31T10:33:09.223Z,15.92
2022-10-31T10:35:43.445Z,16.04
2022-10-31T10:38:34.798Z,16.10
2022-10-31T10:41:05.959Z,16.30
2022-10-31T10:43:38.795Z,16.48
2022-10-31T10:46:30.495Z,16.65
2022-10-31T10:49:05.685Z,16.72
2022-10-31T10:52:02.845Z,16.74
2022-10-31T10:54:44.205Z,16.70
2022-10-31T10:57:29.225Z,16.70
2022-10-31T10:59:56.839Z,16.71
2022-10-31T11:02:26.421Z,16.72
2022-10-31T11:04:59.393Z,16.72
2022-10-31T11:07:39.669Z,16.75
2022-10-31T11:10:14.974Z,16.76
2022-10-31T11:12:58.102Z,16.80
2022-10-31T11:15:27.181Z,16.91
2022-10-31T11:17:56.348Z,17.04
2022-10-31T11:20:32.836Z,17.10
2022-10-31T11:23:20.535Z,17.15
2022-10-31T11:25:58.106Z,17.25
2022-10-31T11:28:26.886Z,17.33
2022-10-31T11:30:59.792Z,17.35
2022-10-31T11:33:35.662Z,17.39
2022-10-31T11:36:19.463Z,17.38
2022-10-31T11:38:47.003Z,17.43
2022-10-31T11:41:17.437Z,17.45
2022-10-31T11:43:52.863Z,17.47
2022-10-31T11:46:24.618Z,17.53
2022-10-31T11:48:55.046Z,17.50
2022-10-31T11:51:26.288Z,17.54
2022-10-31T11:54:00.099Z,17.52
2022-10-31T11:56:40.880Z,17.62
2022-10-31T11:59:19.853Z,17.82
2022-10-31T12:01:52.065Z,18.02
2022-10-31T12:04:19.540Z,18.17
2022-10-31T12:06:48.772Z,18.28
2022-10-31T12:09:25.666Z,18.28
2022-10-31T12:12:25.921Z,18.28
2022-10-31T12:15:16.601Z,18.24
2022-10-31T12:17:56.224Z,18.32
2022-10-31T12:20:47.800Z,18.23
2022-10-31T12:23:26.793Z,18.15
2022-10-31T12:26:43.630Z,18.07
2022-10-31T12:29:40.021Z,18.06
2022-10-31T12:32:19.053Z,18.02
2022-10-31T12:34:49.542Z,17.98
2022-10-31T12:37:41.556Z,17.93
2022-10-31T12:40:28.757Z,17.90
2022-10-31T12:43:02.002Z,17.84
2022-10-31T12:45:47.705Z,17.80
2022-10-31T12:48:17.561Z,17.79
2022-10-31T12:50:44.404Z,17.82
2022-10-31T12:53:27.985Z,17.83
2022-10-31T12:56:00.913Z,17.84
2022-10-31T12:58:34.500Z,17.84
2022-10-31T13:01:16.955Z,17.77
2022-10-31T13:03:59.017Z,17.78
2022-10-31T13:06:34.327Z,17.75
2022-10-31T13:09:08.694Z,17.72
2022-10-31T13:11:41.347Z,17.65
2022-10-31T13:14:35.990Z,17.63
2022-10-31T13:17:03.459Z,17.58
2022-10-31T13:19:36.921Z,17.52
2022-10-31T13:22:32.931Z,17.51
2022-10-31T13:25:02.789Z,17.45
2022-10-31T13:27:39.885Z,17.41
2022-10-31T13:30:15.606Z,17.37
2022-10-31T13:32:49.979Z,17.39
2022-10-31T13:35:26.339Z,17.33
2022-10-31T13:38:05.684Z,17.33
2022-10-31T13:40:43.646Z,17.36
2022-10-31T13:43:27.415Z,17.35
2022-10-31T13:45:56.896Z,17.35
2022-10-31T13:48:26.796Z,17.38
2022-10-31T13:51:00.671Z,17.36
2022-10-31T13:53:39.996Z,17.37
2022-10-31T13:56:18.009Z,17.39
2022-10-31T13:59:10.958Z,17.41
2022-10-31T14:01:50.881Z,17.42
2022-10-31T14:04:25.143Z,17.41
2022-10-31T14:07:06.415Z,17.42
2022-10-31T14:09:39.907Z,17.38
2022-10-31T14:12:13.663Z,17.46
2022-10-31T14:14:47.520Z,17.43
2022-10-31T14:17:24.187Z,17.40
2022-10-31T14:20:12.033Z,17.39
2022-10-31T14:22:42.809Z,17.38
2022-10-31T14:25:34.014Z,17.36
2022-10-31T14:28:04.831Z,17.35
2022-10-31T14:30:32.198Z,17.36
2022-10-31T14:33:02.518Z,17.35
2022-10-31T14:35:51.544Z,17.34
2022-10-31T14:38:47.421Z,17.30
2022-10-31T14:41:36.874Z,17.31
2022-10-31T14:44:37.539Z,17.33
2022-10-31T14:47:32.562Z,17.30
2022-10-31T14:50:30.188Z,17.31
2022-10-31T14:52:58.911Z,17.35
2022-10-31T14:55:27.261Z,17.41
2022-10-31T14:58:02.337Z,17.48
2022-10-31T15:00:36.898Z,17.58
2022-10-31T15:03:22.573Z,17.59
2022-10-31T15:05:53.737Z,17.49
2022-10-31T15:08:36.629Z,17.41
2022-10-31T15:11:14.632Z,17.33
2022-10-31T15:13:53.231Z,17.25
2022-10-31T15:16:26.719Z,17.23
2022-10-31T15:19:00.620Z,17.20
2022-10-31T15:21:29.489Z,17.11
2022-10-31T15:23:59.127Z,17.06
2022-10-31T15:26:33.309Z,17.00
2022-10-31T15:29:05.645Z,16.95
2022-10-31T15:31:33.312Z,16.88
2022-10-31T15:34:17.144Z,16.81
2022-10-31T15:36:44.206Z,16.71
2022-10-31T15:39:12.561Z,16.63
2022-10-31T15:41:54.774Z,16.56
2022-10-31T15:44:35.854Z,16.48
2022-10-31T15:47:28.245Z,16.42
2022-10-31T15:49:57.314Z,16.35
2022-10-31T15:52:32.409Z,16.30
2022-10-31T15:55:10.608Z,16.23
2022-10-31T15:57:46.751Z,16.15
2022-10-31T16:00:23.008Z,16.08
2022-10-31T16:02:49.998Z,16.01
2022-10-31T16:05:19.922Z,15.97
2022-10-31T16:07:50.960Z,15.92
2022-10-31T16:10:26.714Z,15.85
2022-10-31T16:12:54.185Z,15.77
2022-10-31T16:15:22.351Z,15.75
2022-10-31T16:17:52.046Z,15.71
2022-10-31T16:20:33.092Z,15.67
2022-10-31T16:23:01.961Z,15.59
2022-10-31T16:25:37.785Z,15.53
2022-10-31T16:30:48.500Z,15.39
2022-10-31T16:33:27.605Z,15.30
2022-10-31T16:36:09.462Z,15.25
2022-10-31T16:38:43.011Z,15.18
2022-10-31T16:41:11.275Z,15.12
2022-10-31T16:43:39.284Z,15.10
2022-10-31T16:46:06.406Z,15.08
2022-10-31T16:48:33.405Z,15.07
2022-10-31T16:51:00.330Z,15.09
2022-10-31T16:53:28.388Z,15.09
2022-10-31T16:55:58.722Z,15.09
2022-10-31T16:58:30.648Z,15.10
2022-10-31T17:00:59.232Z,15.12
2022-10-31T17:03:27.141Z,15.15
2022-10-31T17:05:56.432Z,15.20
2022-10-31T17:08:24.828Z,15.24
2022-10-31T17:10:54.834Z,15.26
2022-10-31T17:13:25.342Z,15.31
2022-10-31T17:15:57.420Z,15.35
2022-10-31T17:18:27.546Z,15.39
2022-10-31T17:21:06.220Z,15.40
2022-10-31T17:23:33.448Z,15.42
2022-10-31T17:26:00.572Z,15.42
2022-10-31T17:28:27.621Z,15.43
2022-10-31T17:30:58.344Z,15.41
2022-10-31T17:33:25.560Z,15.37
2022-10-31T17:35:52.591Z,15.34
2022-10-31T17:38:19.646Z,15.31
2022-10-31T17:43:18.877Z,15.22
2022-10-31T17:45:46.027Z,15.16
2022-10-31T17:48:13.217Z,15.14
2022-10-31T17:50:41.288Z,15.15
2022-10-31T17:53:09.426Z,15.14
2022-10-31T17:55:37.667Z,15.14
2022-10-31T17:58:05.612Z,15.13
2022-10-31T18:00:32.952Z,15.16
2022-10-31T18:03:02.490Z,15.17
2022-10-31T18:05:29.826Z,15.15
2022-10-31T18:08:02.520Z,15.12
2022-10-31T18:10:31.555Z,15.10
2022-10-31T18:12:58.697Z,15.06
2022-10-31T18:15:25.893Z,15.06
2022-10-31T18:17:52.878Z,15.07
2022-10-31T18:20:20.021Z,15.09
2022-10-31T18:22:47.039Z,15.13
2022-10-31T18:25:13.995Z,15.14
2022-10-31T18:27:40.928Z,15.13
2022-10-31T18:30:08.563Z,15.12
2022-10-31T18:32:36.450Z,15.11
2022-10-31T18:35:03.706Z,15.09
2022-10-31T18:37:30.676Z,15.06
2022-10-31T18:39:57.704Z,15.02
2022-10-31T18:42:25.742Z,15.00
2022-10-31T18:44:52.738Z,14.97
2022-10-31T18:47:20.351Z,14.95
2022-10-31T18:49:47.384Z,14.93
2022-10-31T18:52:14.309Z,14.89
2022-10-31T18:54:44.748Z,14.85
2022-10-31T18:57:12.814Z,14.83
2022-10-31T18:59:39.950Z,14.80
2022-10-31T19:02:11.993Z,14.76
2022-10-31T19:04:41.397Z,14.76
2022-10-31T19:07:08.841Z,14.74
2022-10-31T19:09:36.499Z,14.72
2022-10-31T19:12:03.722Z,14.70
2022-10-31T19:14:30.694Z,14.68
2022-10-31T19:17:02.105Z,14.67
2022-10-31T19:19:29.632Z,14.64
2022-10-31T19:21:56.800Z,14.59
2022-10-31T19:24:24.277Z,14.56
2022-10-31T19:26:51.471Z,14.52
2022-10-31T19:29:19.483Z,14.49
2022-10-31T19:31:48.189Z,14.44
2022-10-31T19:34:15.186Z,14.39
2022-10-31T19:36:43.454Z,14.34
2022-10-31T19:39:11.783Z,14.28
2022-10-31T19:41:38.854Z,14.22
2022-10-31T19:44:05.937Z,14.18
2022-10-31T19:46:52.472Z,14.13
2022-10-31T19:49:19.788Z,14.09
2022-10-31T19:52:11.884Z,14.06
2022-10-31T19:54:38.874Z,14.03
2022-10-31T19:57:06.079Z,13.97
2022-10-31T19:59:39.001Z,13.95
2022-10-31T20:02:06.775Z,13.90
2022-10-31T20:04:33.877Z,13.88
2022-10-31T20:07:00.869Z,13.86
2022-10-31T20:09:27.911Z,13.82
2022-10-31T20:11:54.861Z,13.79
2022-10-31T20:14:21.803Z,13.76
2022-10-31T20:16:48.793Z,13.74
2022-10-31T20:19:17.297Z,13.70
2022-10-31T20:21:44.491Z,13.68
2022-10-31T20:24:11.621Z,13.65
2022-10-31T20:26:40.771Z,13.65
2022-10-31T20:29:13.317Z,13.64
2022-10-31T20:31:40.398Z,13.63
2022-10-31T20:34:07.516Z,13.62
2022-10-31T20:36:34.593Z,13.64
2022-10-31T20:39:01.639Z,13.66
2022-10-31T20:41:29.033Z,13.69
2022-10-31T20:43:56.038Z,13.70
2022-10-31T20:46:25.803Z,13.71
2022-10-31T20:48:54.041Z,13.73
2022-10-31T20:51:24.006Z,13.75
2022-10-31T20:53:52.784Z,13.76
2022-10-31T20:56:22.351Z,13.78
2022-10-31T20:58:50.222Z,13.79
2022-10-31T21:01:19.647Z,13.80
2022-10-31T21:03:47.619Z,13.81
2022-10-31T21:06:15.563Z,13.82
2022-10-31T21:08:43.900Z,13.82
2022-10-31T21:11:14.426Z,13.82
2022-10-31T21:13:43.997Z,13.84
2022-10-31T21:16:16.643Z,13.87
2022-10-31T21:18:45.485Z,13.88
2022-10-31T21:21:15.248Z,13.89
2022-10-31T21:23:43.165Z,13.91
2022-10-31T21:26:19.272Z,13.91
2022-10-31T21:28:46.659Z,13.92
2022-10-31T21:31:16.670Z,13.95
2022-10-31T21:33:44.959Z,13.94
2022-10-31T21:36:13.019Z,13.96
2022-10-31T21:38:40.171Z,13.96
2022-10-31T21:41:13.510Z,13.96
2022-10-31T21:43:42.950Z,13.99
2022-10-31T21:46:12.953Z,14.01
2022-10-31T21:48:43.435Z,14.02
2022-10-31T21:51:23.166Z,14.00
2022-10-31T21:54:15.705Z,14.01
2022-10-31T21:56:43.119Z,14.02
2022-10-31T21:59:10.573Z,14.01
2022-10-31T22:01:38.311Z,14.03
2022-10-31T22:04:06.122Z,14.06
2022-10-31T22:06:33.831Z,14.11
2022-10-31T22:09:02.692Z,14.13
2022-10-31T22:11:30.131Z,14.16
2022-10-31T22:13:59.804Z,14.18
2022-10-31T22:16:29.093Z,14.16
2022-10-31T22:18:58.274Z,14.14
2022-10-31T22:21:27.554Z,14.13
2022-10-31T22:24:02.050Z,14.10
2022-10-31T22:26:32.098Z,14.06
2022-10-31T22:29:02.300Z,14.04
2022-10-31T22:31:30.766Z,14.00
2022-10-31T22:33:58.030Z,14.02
2022-10-31T22:36:27.676Z,14.02
2022-10-31T22:38:54.875Z,14.03
2022-10-31T22:41:24.814Z,14.05
2022-10-31T22:43:53.885Z,14.08
2022-10-31T22:46:29.424Z,14.10
2022-10-31T22:49:01.402Z,14.14
2022-10-31T22:51:37.863Z,14.17
2022-10-31T22:54:07.134Z,14.21
2022-10-31T22:56:34.906Z,14.24
2022-10-31T22:59:02.622Z,14.29
2022-10-31T23:01:33.310Z,14.33
2022-10-31T23:04:00.949Z,14.36
2022-10-31T23:06:30.818Z,14.40
2022-10-31T23:09:00.078Z,14.45
2022-10-31T23:11:32.582Z,14.53
2022-10-31T23:14:09.075Z,14.58
2022-10-31T23:16:36.170Z,14.62
2022-10-31T23:19:13.624Z,14.65
2022-10-31T23:22:00.128Z,14.67
2022-10-31T23:24:44.615Z,14.69
2022-10-31T23:27:12.908Z,14.70
2022-10-31T23:29:45.574Z,14.73
2022-10-31T23:32:19.731Z,14.74
2022-10-31T23:34:48.499Z,14.75
2022-10-31T23:37:16.798Z,14.75
2022-10-31T23:39:44.246Z,14.77
2022-10-31T23:42:11.947Z,14.79
2022-10-31T23:44:38.935Z,14.78
2022-10-31T23:47:06.348Z,14.81
2022-10-31T23:49:33.658Z,14.81
2022-10-31T23:52:01.310Z,14.81
2022-10-31T23:54:28.603Z,14.80
2022-10-31T23:56:56.180Z,14.79
2022-10-31T23:59:24.403Z,14.80
